Time;durP1;ratioP1;P1;durP2;ratioP2;P2;SDS_P1;SDS_P2;PMS_P1;PMS_P2;Temp;Humidity;BMP_temperature;BMP_pressure;BME280_temperature;BME280_humidity;BME280_pressure;Samples;Min_cycle;Max_cycle;Signal;HPM_P1;HPM_P2
2021/12/12 00:00:58;;;;;;;400.33;78.97;;;4.60;95.10;;;;;;5028608;28;20516;-84
2021/12/12 00:03:38;;;;;;;395.23;79.32;;;4.60;95.10;;;;;;5062676;28;20121;-84
2021/12/12 00:06:11;;;;;;;404.88;79.85;;;4.60;95.10;;;;;;5040245;28;20070;-84
2021/12/12 00:08:39;;;;;;;407.27;81.57;;;4.60;95.10;;;;;;5044565;28;20073;-84
2021/12/12 00:11:13;;;;;;;409.27;81.70;;;4.60;95.10;;;;;;5046058;28;20115;-84
2021/12/12 00:13:53;;;;;;;416.38;81.72;;;4.60;95.20;;;;;;5038545;28;20080;-84
2021/12/12 00:16:19;;;;;;;391.70;79.03;;;4.60;95.10;;;;;;5043604;28;20061;-85
2021/12/12 00:18:45;;;;;;;381.98;77.03;;;4.60;95.10;;;;;;5042530;28;20575;-84
2021/12/12 00:21:13;;;;;;;406.02;76.25;;;4.70;95.10;;;;;;5043613;28;20075;-84
2021/12/12 00:23:39;;;;;;;408.10;81.70;;;4.70;95.20;;;;;;5045789;28;20533;-85
2021/12/12 00:26:05;;;;;;;372.75;78.93;;;4.70;95.20;;;;;;5047689;28;20074;-84
2021/12/12 00:28:33;;;;;;;399.58;79.38;;;4.70;95.20;;;;;;5028985;28;20483;-84
2021/12/12 00:31:08;;;;;;;377.75;77.68;;;4.70;95.20;;;;;;5044084;28;20071;-85
2021/12/12 00:33:35;;;;;;;366.23;77.15;;;4.70;95.20;;;;;;5048242;28;20077;-84
2021/12/12 00:36:02;;;;;;;375.92;75.68;;;4.80;95.20;;;;;;5044979;28;20086;-84
2021/12/12 00:38:31;;;;;;;369.73;75.50;;;4.80;95.20;;;;;;5024645;28;20073;-84
2021/12/12 00:41:02;;;;;;;365.80;75.70;;;4.80;95.20;;;;;;5045502;28;20455;-84
2021/12/12 00:43:39;;;;;;;352.58;72.78;;;4.80;95.20;;;;;;5043042;28;20487;-84
2021/12/12 00:46:08;;;;;;;374.58;76.45;;;4.80;95.20;;;;;;5059952;28;20478;-84
2021/12/12 00:48:35;;;;;;;344.27;71.18;;;4.80;95.20;;;;;;5045173;28;20077;-84
2021/12/12 00:51:04;;;;;;;348.13;74.50;;;4.80;95.20;;;;;;5030750;28;20113;-84
2021/12/12 00:53:31;;;;;;;328.15;72.18;;;4.80;95.10;;;;;;5039359;28;20163;-84
2021/12/12 00:55:57;;;;;;;330.95;72.95;;;4.80;95.20;;;;;;5043127;28;20070;-84
2021/12/12 00:58:24;;;;;;;363.20;74.25;;;4.80;95.10;;;;;;5048217;28;20531;-84
2021/12/12 01:01:00;;;;;;;374.38;75.40;;;4.90;95.20;;;;;;5043410;28;20062;-84
2021/12/12 01:03:34;;;;;;;353.27;69.95;;;4.80;95.20;;;;;;5059862;28;20135;-84
2021/12/12 01:06:01;;;;;;;324.83;68.28;;;4.90;95.20;;;;;;5043199;28;20073;-84
2021/12/12 01:08:28;;;;;;;313.20;70.22;;;4.90;95.20;;;;;;5023216;28;20433;-84
2021/12/12 01:11:08;;;;;;;310.35;67.10;;;4.90;95.10;;;;;;5042263;28;20061;-84
2021/12/12 01:13:35;;;;;;;314.35;65.70;;;4.90;95.20;;;;;;5038255;28;20087;-84
2021/12/12 01:16:26;;;;;;;310.48;67.43;;;4.90;95.20;;;;;;5029499;28;20616;-84
2021/12/12 01:19:04;;;;;;;302.70;66.22;;;4.90;95.20;;;;;;5055070;28;20075;-84
2021/12/12 01:21:35;;;;;;;298.35;66.75;;;4.90;95.10;;;;;;5060806;28;20529;-84
2021/12/12 01:24:13;;;;;;;301.30;66.55;;;4.90;95.10;;;;;;5044005;28;20534;-84
2021/12/12 01:26:40;;;;;;;320.35;66.53;;;4.90;95.20;;;;;;5043206;28;20142;-84
2021/12/12 01:29:08;;;;;;;297.85;61.35;;;5.00;95.20;;;;;;5024872;28;20088;-84
2021/12/12 01:31:39;;;;;;;308.85;64.55;;;5.00;95.20;;;;;;5019739;28;20103;-84
2021/12/12 01:34:12;;;;;;;298.05;64.90;;;5.00;95.20;;;;;;5027478;28;20539;-83
2021/12/12 01:39:21;;;;;;;280.33;62.42;;;5.00;95.20;;;;;;5054888;28;20079;-84
2021/12/12 01:41:57;;;;;;;300.13;63.10;;;5.00;95.20;;;;;;5042943;28;20120;-83
2021/12/12 01:44:30;;;;;;;294.95;62.28;;;5.00;95.20;;;;;;5045865;28;20423;-84
2021/12/12 01:47:04;;;;;;;283.63;62.25;;;5.00;95.10;;;;;;5046732;28;20067;-84
2021/12/12 01:49:33;;;;;;;276.17;61.60;;;5.00;95.20;;;;;;5041386;28;20074;-84
2021/12/12 01:52:00;;;;;;;282.55;61.90;;;5.10;95.20;;;;;;5042033;28;20081;-84
2021/12/12 01:54:32;;;;;;;283.70;59.70;;;5.10;95.20;;;;;;5044431;28;20573;-84
2021/12/12 01:57:00;;;;;;;268.50;59.90;;;5.00;95.20;;;;;;5043851;28;20596;-84
2021/12/12 01:59:35;;;;;;;257.75;61.72;;;5.10;95.20;;;;;;5041441;28;20060;-84
2021/12/12 02:02:12;;;;;;;256.00;57.67;;;5.10;95.20;;;;;;5044524;28;20067;-84
2021/12/12 02:04:46;;;;;;;267.02;58.75;;;5.10;95.20;;;;;;5037710;28;20064;-84
2021/12/12 02:07:16;;;;;;;247.77;57.92;;;5.10;95.20;;;;;;5039352;28;20070;-83
2021/12/12 02:09:43;;;;;;;251.60;56.25;;;5.10;95.20;;;;;;5038961;28;20068;-84
2021/12/12 02:12:10;;;;;;;252.85;56.15;;;5.20;95.20;;;;;;5038528;28;20071;-84
2021/12/12 02:14:39;;;;;;;241.85;54.03;;;5.10;95.10;;;;;;5019978;28;20273;-84
2021/12/12 02:17:13;;;;;;;256.17;56.00;;;5.10;95.20;;;;;;5039686;28;20070;-84
2021/12/12 02:20:00;;;;;;;247.27;54.83;;;5.20;95.20;;;;;;5036256;28;20072;-83
2021/12/12 02:35:55;;;;;;;204.15;49.13;;;5.20;95.20;;;;;;5033477;28;20210;-84
2021/12/12 02:38:27;;;;;;;214.60;49.15;;;5.20;95.20;;;;;;5044765;28;20753;-84
2021/12/12 02:41:00;;;;;;;186.63;42.47;;;5.30;95.20;;;;;;5044551;28;20446;-84
2021/12/12 02:43:31;;;;;;;193.63;49.13;;;5.20;95.20;;;;;;5042958;28;20225;-84
2021/12/12 02:45:57;;;;;;;196.80;47.80;;;5.30;95.20;;;;;;5056038;28;20072;-85
2021/12/12 02:48:33;;;;;;;189.98;47.10;;;5.30;95.20;;;;;;5052757;28;20071;-84
2021/12/12 02:51:04;;;;;;;193.65;46.63;;;5.30;95.20;;;;;;5042601;28;20091;-84
2021/12/12 02:53:41;;;;;;;204.67;47.97;;;5.30;95.20;;;;;;5033900;28;20891;-84
2021/12/12 02:56:18;;;;;;;193.55;46.33;;;5.30;95.20;;;;;;5061960;28;20147;-84
2021/12/12 02:58:45;;;;;;;176.38;45.33;;;5.30;95.20;;;;;;5042791;28;20069;-84
2021/12/12 03:01:25;;;;;;;169.15;42.33;;;5.30;95.20;;;;;;5010072;28;20169;-84
2021/12/12 03:03:54;;;;;;;177.80;44.70;;;5.30;95.20;;;;;;5041108;28;20078;-84
2021/12/12 03:06:26;;;;;;;163.65;41.45;;;5.30;95.20;;;;;;5020411;28;20075;-84
2021/12/12 03:08:57;;;;;;;177.95;43.08;;;5.40;95.20;;;;;;5042904;28;20081;-84
2021/12/12 03:11:24;;;;;;;187.97;44.83;;;5.40;95.20;;;;;;5040321;28;20105;-84
2021/12/12 03:13:51;;;;;;;162.48;43.95;;;5.40;95.20;;;;;;5023418;28;20349;-85
2021/12/12 03:16:17;;;;;;;156.07;41.25;;;5.40;95.20;;;;;;5044886;28;20063;-85
2021/12/12 03:18:44;;;;;;;146.75;40.22;;;5.40;95.20;;;;;;5038607;28;20504;-85
2021/12/12 03:21:17;;;;;;;176.68;44.13;;;5.40;95.20;;;;;;5033628;28;20098;-85
2021/12/12 03:23:49;;;;;;;160.88;41.97;;;5.40;95.20;;;;;;5058223;28;20069;-85
2021/12/12 03:26:17;;;;;;;160.55;39.40;;;5.40;95.20;;;;;;5047649;28;20078;-85
2021/12/12 03:28:47;;;;;;;146.63;39.25;;;5.40;95.40;;;;;;5039755;28;20598;-84
2021/12/12 03:31:28;;;;;;;156.05;39.15;;;5.40;95.20;;;;;;5048963;28;20078;-84
2021/12/12 03:33:54;;;;;;;146.25;40.80;;;5.40;95.20;;;;;;5046111;28;21450;-84
2021/12/12 03:36:21;;;;;;;154.13;40.65;;;5.50;95.20;;;;;;5040482;28;20150;-85
2021/12/12 03:38:51;;;;;;;152.60;37.60;;;5.50;95.20;;;;;;5027424;28;20101;-84
2021/12/12 03:41:20;;;;;;;118.30;32.20;;;5.50;95.20;;;;;;5042443;28;20059;-85
2021/12/12 03:43:51;;;;;;;134.50;37.17;;;5.50;95.20;;;;;;5048073;28;20067;-85
2021/12/12 03:46:17;;;;;;;142.55;37.17;;;5.50;95.20;;;;;;5065661;28;20066;-85
2021/12/12 03:48:44;;;;;;;127.65;35.88;;;5.50;95.20;;;;;;5027237;28;20069;-85
2021/12/12 03:51:16;;;;;;;128.88;35.17;;;5.50;95.20;;;;;;5046612;28;20078;-85
2021/12/12 03:53:41;;;;;;;122.30;31.20;;;5.60;95.60;;;;;;5056325;28;20152;-85
2021/12/12 03:56:09;;;;;;;115.38;31.52;;;5.50;95.20;;;;;;5046719;28;20077;-85
2021/12/12 03:58:36;;;;;;;99.05;30.48;;;5.50;95.20;;;;;;5061751;28;20186;-86
2021/12/12 04:01:14;;;;;;;106.10;32.10;;;5.60;95.30;;;;;;5044766;28;20079;-85
2021/12/12 04:03:41;;;;;;;106.80;31.30;;;5.60;95.20;;;;;;5040687;28;20069;-85
2021/12/12 04:06:09;;;;;;;119.07;32.67;;;5.60;95.20;;;;;;5023256;28;20072;-85
2021/12/12 04:08:38;;;;;;;109.13;31.42;;;5.60;95.20;;;;;;5062056;28;20524;-85
2021/12/12 04:11:11;;;;;;;98.55;28.40;;;5.60;95.20;;;;;;5040465;28;20520;-85
2021/12/12 04:13:43;;;;;;;103.93;32.45;;;5.60;95.20;;;;;;5042122;28;20070;-85
2021/12/12 04:16:09;;;;;;;95.57;28.38;;;5.70;95.20;;;;;;5042309;28;20148;-84
2021/12/12 04:18:35;;;;;;;115.40;31.27;;;5.70;95.20;;;;;;5021777;28;20077;-85
2021/12/12 04:21:00;;;;;;;95.25;29.33;;;5.70;95.20;;;;;;5046318;28;20306;-85
2021/12/12 04:23:27;;;;;;;96.57;28.30;;;5.70;95.20;;;;;;5041051;28;20072;-85
2021/12/12 04:26:06;;;;;;;98.45;30.10;;;5.70;95.20;;;;;;5047709;28;20096;-85
2021/12/12 04:28:32;;;;;;;95.60;29.02;;;5.70;95.20;;;;;;5042264;28;20469;-85
2021/12/12 04:30:58;;;;;;;90.80;27.13;;;5.70;95.20;;;;;;5048952;28;20579;-86
2021/12/12 04:33:25;;;;;;;96.63;29.83;;;5.70;95.20;;;;;;5027575;28;20155;-85
2021/12/12 04:35:51;;;;;;;94.45;27.55;;;5.70;95.20;;;;;;5046277;28;20053;-85
2021/12/12 04:38:16;;;;;;;94.78;28.80;;;5.80;95.20;;;;;;5044812;28;20580;-85
2021/12/12 04:40:42;;;;;;;89.13;27.65;;;5.80;95.20;;;;;;5039489;28;20356;-86
2021/12/12 04:43:08;;;;;;;93.35;28.23;;;5.80;95.20;;;;;;5041885;28;20076;-85
2021/12/12 04:45:58;;;;;;;88.57;27.77;;;5.80;95.20;;;;;;5042873;28;20165;-85
2021/12/12 04:51:20;;;;;;;82.50;25.85;;;5.90;95.20;;;;;;5063009;28;20075;-86
2021/12/12 04:54:15;;;;;;;81.60;24.23;;;5.90;95.20;;;;;;5040158;28;20102;-85
2021/12/12 04:56:59;;;;;;;76.63;25.45;;;5.90;95.20;;;;;;5025791;28;20079;-86
2021/12/12 04:59:42;;;;;;;78.22;24.25;;;5.90;95.20;;;;;;5043467;28;20069;-86
2021/12/12 05:02:28;;;;;;;44.80;14.77;;;5.90;95.20;;;;;;5063958;28;20086;-86
2021/12/12 05:05:05;;;;;;;69.28;21.15;;;5.90;95.20;;;;;;5045581;28;20091;-86
2021/12/12 05:07:43;;;;;;;72.65;22.02;;;5.90;95.20;;;;;;5038171;28;20584;-85
2021/12/12 05:10:19;;;;;;;70.57;22.40;;;6.00;95.30;;;;;;5059266;28;20071;-86
2021/12/12 05:12:54;;;;;;;68.63;22.58;;;6.00;95.30;;;;;;5059554;28;20700;-85
2021/12/12 05:15:28;;;;;;;81.15;25.17;;;6.00;95.30;;;;;;5040621;28;20091;-86
2021/12/12 05:18:29;;;;;;;77.30;23.48;;;6.00;95.30;;;;;;5044871;28;20066;-86
2021/12/12 05:21:10;;;;;;;68.00;20.92;;;6.10;95.30;;;;;;5013451;28;20070;-86
2021/12/12 05:23:40;;;;;;;72.57;22.20;;;6.10;95.30;;;;;;5045446;28;20462;-86
2021/12/12 05:26:14;;;;;;;66.28;20.00;;;6.10;95.30;;;;;;5043764;28;20453;-86
2021/12/12 05:28:47;;;;;;;68.03;23.85;;;6.10;95.30;;;;;;5060602;28;20594;-86
2021/12/12 05:31:14;;;;;;;70.05;21.95;;;6.20;95.30;;;;;;5043207;28;20062;-85
2021/12/12 05:33:41;;;;;;;60.58;20.50;;;6.20;95.30;;;;;;5046178;28;20545;-85
2021/12/12 05:36:10;;;;;;;63.22;20.67;;;6.20;95.30;;;;;;5061308;28;20062;-85
2021/12/12 05:38:36;;;;;;;73.00;22.45;;;6.30;95.30;;;;;;5059390;28;20057;-85
2021/12/12 05:41:03;;;;;;;76.15;21.83;;;6.30;95.30;;;;;;5046915;28;21216;-83
2021/12/12 05:43:30;;;;;;;75.22;22.33;;;6.30;95.30;;;;;;5048463;28;20510;-83
2021/12/12 05:45:56;;;;;;;79.47;22.42;;;6.30;95.30;;;;;;5033847;28;20081;-84
2021/12/12 05:48:22;;;;;;;80.28;23.30;;;6.30;95.30;;;;;;5036065;28;20066;-84
2021/12/12 05:50:50;;;;;;;86.35;24.83;;;6.30;95.30;;;;;;5031231;28;20069;-84
2021/12/12 05:53:16;;;;;;;80.68;24.67;;;6.40;95.30;;;;;;5040224;28;20144;-84
2021/12/12 05:55:44;;;;;;;84.60;26.88;;;6.40;95.30;;;;;;5022999;28;20072;-83
2021/12/12 05:58:12;;;;;;;83.68;23.60;;;6.40;95.30;;;;;;5029794;28;20098;-84
2021/12/12 06:00:51;;;;;;;88.68;24.95;;;6.40;95.30;;;;;;5026036;28;20170;-83
2021/12/12 06:03:20;;;;;;;94.20;24.77;;;6.40;95.30;;;;;;5039682;28;20727;-84
2021/12/12 06:05:46;;;;;;;85.30;23.10;;;6.40;95.30;;;;;;5029371;28;20124;-84
2021/12/12 06:08:13;;;;;;;92.82;25.65;;;6.40;95.30;;;;;;5029957;28;20065;-84
2021/12/12 06:10:41;;;;;;;82.65;24.48;;;6.40;95.30;;;;;;5002131;28;20427;-84
2021/12/12 06:13:12;;;;;;;98.35;25.80;;;6.50;95.30;;;;;;5024360;28;20066;-84
2021/12/12 06:15:39;;;;;;;89.72;25.20;;;6.40;95.30;;;;;;5011936;28;20076;-84
2021/12/12 06:18:07;;;;;;;84.88;23.73;;;6.50;95.30;;;;;;5041102;28;20059;-83
2021/12/12 06:20:33;;;;;;;94.18;25.98;;;6.50;95.30;;;;;;5019445;28;20079;-84
2021/12/12 06:22:59;;;;;;;96.95;24.70;;;6.50;95.30;;;;;;5021981;28;20095;-84
2021/12/12 06:25:25;;;;;;;101.20;26.52;;;6.50;95.30;;;;;;5018313;28;20156;-83
2021/12/12 06:27:52;;;;;;;102.32;26.83;;;6.50;95.30;;;;;;5002535;28;20618;-84
2021/12/12 06:30:21;;;;;;;104.43;26.98;;;6.50;95.30;;;;;;5025331;28;20612;-84
2021/12/12 06:32:48;;;;;;;106.35;28.42;;;6.60;95.30;;;;;;5033561;28;20049;-84
2021/12/12 06:35:15;;;;;;;100.88;28.33;;;6.60;95.30;;;;;;5024746;28;20435;-84
2021/12/12 06:37:45;;;;;;;107.40;28.50;;;6.60;95.30;;;;;;5038420;28;20115;-84
2021/12/12 06:40:17;;;;;;;110.40;26.73;;;6.60;95.30;;;;;;4991423;28;20059;-84
2021/12/12 06:42:43;;;;;;;102.63;27.42;;;6.60;95.30;;;;;;5020872;28;20061;-85
2021/12/12 06:45:11;;;;;;;114.70;28.92;;;6.60;95.30;;;;;;5000465;28;20564;-83
2021/12/12 06:47:38;;;;;;;113.35;29.95;;;6.60;95.30;;;;;;5006192;28;20069;-80
2021/12/12 06:50:05;;;;;;;118.65;28.25;;;6.60;95.30;;;;;;5015993;28;20119;-84
2021/12/12 06:52:32;;;;;;;114.72;27.58;;;6.60;95.40;;;;;;5023293;28;20053;-82
2021/12/12 06:54:59;;;;;;;112.25;27.42;;;6.70;95.40;;;;;;5025870;28;20097;-82
2021/12/12 06:57:25;;;;;;;117.07;27.50;;;6.70;95.40;;;;;;5009596;28;20078;-80
2021/12/12 06:59:51;;;;;;;117.82;28.15;;;6.60;95.30;;;;;;5043671;28;20061;-80
2021/12/12 07:02:18;;;;;;;113.53;26.67;;;6.60;95.40;;;;;;5045448;28;20058;-81
2021/12/12 07:04:45;;;;;;;119.03;27.58;;;6.70;95.40;;;;;;5062749;28;20066;-80
2021/12/12 07:07:14;;;;;;;105.05;25.80;;;6.70;95.40;;;;;;5052364;28;20069;-82
2021/12/12 07:09:42;;;;;;;112.32;26.50;;;6.70;95.40;;;;;;5045307;28;20062;-81
2021/12/12 07:12:12;;;;;;;103.95;26.83;;;6.70;95.40;;;;;;5024018;28;20067;-81
2021/12/12 07:14:38;;;;;;;117.13;28.80;;;6.80;95.40;;;;;;5063464;28;20068;-81
2021/12/12 07:17:05;;;;;;;112.90;25.95;;;6.70;95.40;;;;;;5028419;28;20206;-83
2021/12/12 07:19:31;;;;;;;123.28;28.33;;;6.80;95.30;;;;;;5044591;28;20137;-83
2021/12/12 07:22:02;;;;;;;115.18;27.75;;;6.80;95.40;;;;;;5027405;28;20487;-82
2021/12/12 07:24:29;;;;;;;118.35;28.38;;;6.80;95.40;;;;;;5042142;28;20060;-80
2021/12/12 07:26:55;;;;;;;127.70;29.73;;;6.80;95.30;;;;;;5062861;28;20053;-82
2021/12/12 07:29:21;;;;;;;112.97;26.60;;;6.80;95.40;;;;;;5027735;28;20061;-86
2021/12/12 07:31:47;;;;;;;116.70;27.15;;;6.80;95.40;;;;;;5046374;28;20052;-81
2021/12/12 07:34:16;;;;;;;128.05;28.58;;;6.80;95.30;;;;;;5042460;28;20084;-81
2021/12/12 07:36:53;;;;;;;140.10;31.30;;;6.80;95.40;;;;;;5047446;28;20061;-82
2021/12/12 07:39:22;;;;;;;134.32;28.30;;;6.90;95.40;;;;;;5047609;28;20068;-81
2021/12/12 07:41:50;;;;;;;152.77;30.25;;;6.90;95.40;;;;;;5028244;28;20507;-81
2021/12/12 07:44:20;;;;;;;148.63;30.48;;;6.90;95.40;;;;;;5046297;28;20053;-82
2021/12/12 07:46:48;;;;;;;148.35;32.58;;;6.90;95.40;;;;;;5058107;28;20427;-82
2021/12/12 07:49:17;;;;;;;159.02;33.10;;;6.90;95.40;;;;;;5032267;28;20414;-82
2021/12/12 07:51:43;;;;;;;170.40;31.90;;;6.90;95.40;;;;;;5027445;28;20063;-82
2021/12/12 07:54:09;;;;;;;158.65;31.80;;;6.90;95.40;;;;;;5031042;28;20092;-82
2021/12/12 07:56:38;;;;;;;155.70;30.65;;;7.00;95.40;;;;;;5043856;28;20141;-82
2021/12/12 07:59:05;;;;;;;170.68;31.73;;;7.00;95.80;;;;;;5062143;28;20050;-82
2021/12/12 08:01:32;;;;;;;176.40;33.83;;;7.00;95.40;;;;;;5063321;28;20058;-82
2021/12/12 08:03:59;;;;;;;169.60;32.75;;;7.00;95.40;;;;;;5043155;28;20091;-82
2021/12/12 08:06:26;;;;;;;187.55;33.70;;;7.00;95.40;;;;;;5046398;28;20529;-82
2021/12/12 08:08:53;;;;;;;173.13;31.73;;;7.00;95.40;;;;;;5046784;28;20464;-82
2021/12/12 08:11:24;;;;;;;156.40;28.88;;;7.00;95.70;;;;;;5065129;28;20053;-82
2021/12/12 08:13:50;;;;;;;174.55;32.22;;;7.10;95.40;;;;;;5041531;28;20069;-82
2021/12/12 08:16:17;;;;;;;171.52;32.40;;;7.10;95.50;;;;;;5043557;28;20198;-81
2021/12/12 08:18:44;;;;;;;193.75;34.47;;;7.10;95.50;;;;;;5027764;28;20055;-81
2021/12/12 08:21:10;;;;;;;162.95;32.72;;;7.10;95.40;;;;;;5042491;28;20070;-81
2021/12/12 08:23:37;;;;;;;175.25;32.80;;;7.20;95.50;;;;;;5044437;28;20060;-82
2021/12/12 08:26:05;;;;;;;180.60;33.42;;;7.20;95.50;;;;;;5028760;28;20069;-83
2021/12/12 08:28:31;;;;;;;186.07;32.10;;;7.20;95.50;;;;;;5044842;28;20061;-80
2021/12/12 08:30:57;;;;;;;181.40;34.35;;;7.20;95.50;;;;;;5029320;28;20389;-83
2021/12/12 08:33:24;;;;;;;169.05;31.88;;;7.30;95.50;;;;;;5059184;28;20045;-83
2021/12/12 08:35:51;;;;;;;191.85;34.08;;;7.30;95.50;;;;;;5025160;28;20575;-80
2021/12/12 08:38:18;;;;;;;187.38;33.53;;;7.30;95.50;;;;;;5040571;28;20141;-79
2021/12/12 08:40:47;;;;;;;194.98;33.45;;;7.30;95.50;;;;;;5042215;28;20066;-80
2021/12/12 08:43:15;;;;;;;206.20;34.53;;;7.30;95.50;;;;;;5056107;28;20524;-80
2021/12/12 08:45:45;;;;;;;200.77;35.88;;;7.30;95.50;;;;;;5044825;28;20066;-81
2021/12/12 08:48:16;;;;;;;204.25;35.70;;;7.30;95.50;;;;;;5056424;28;20060;-80
2021/12/12 08:50:43;;;;;;;207.40;36.25;;;7.40;95.50;;;;;;5040007;28;20060;-81
2021/12/12 08:53:10;;;;;;;214.55;35.65;;;7.40;95.50;;;;;;5035549;28;20072;-81
2021/12/12 08:55:43;;;;;;;252.82;40.40;;;7.40;95.50;;;;;;5035476;28;20144;-81
2021/12/12 08:58:15;;;;;;;257.50;38.95;;;7.50;95.90;;;;;;5021923;28;20057;-80
2021/12/12 09:01:08;;;;;;;228.65;40.42;;;7.50;95.50;;;;;;5039050;28;20120;-81
2021/12/12 09:03:49;;;;;;;249.60;40.95;;;7.50;95.60;;;;;;5024063;28;20050;-81
2021/12/12 09:06:17;;;;;;;248.17;42.60;;;7.50;95.50;;;;;;5027937;28;20059;-80
2021/12/12 09:09:14;;;;;;;260.52;39.88;;;7.60;95.50;;;;;;5041323;28;20050;-80
2021/12/12 09:11:49;;;;;;;257.17;41.80;;;7.60;95.60;;;;;;5045665;28;20051;-81
2021/12/12 09:14:38;;;;;;;263.70;43.22;;;7.60;95.50;;;;;;5021761;28;20435;-80
2021/12/12 09:17:29;;;;;;;275.52;42.72;;;7.60;95.50;;;;;;5039672;28;20055;-81
2021/12/12 09:20:13;;;;;;;262.73;44.05;;;7.60;95.50;;;;;;5045181;28;20130;-80
2021/12/12 09:23:07;;;;;;;266.08;42.22;;;7.70;95.50;;;;;;5024814;28;20058;-79
2021/12/12 09:25:50;;;;;;;281.67;42.85;;;7.70;95.90;;;;;;4980922;28;20072;-78
2021/12/12 09:28:35;;;;;;;274.70;43.97;;;7.70;95.50;;;;;;5039491;28;20357;-78
2021/12/12 09:31:09;;;;;;;288.05;43.88;;;7.70;95.50;;;;;;5033856;28;20101;-78
2021/12/12 09:33:52;;;;;;;273.00;42.83;;;7.80;95.50;;;;;;5045435;28;20508;-78
2021/12/12 09:36:35;;;;;;;270.60;41.80;;;7.80;95.50;;;;;;5025090;28;20062;-79
2021/12/12 09:39:19;;;;;;;273.00;42.70;;;7.80;95.50;;;;;;5032929;28;20063;-79
2021/12/12 09:42:04;;;;;;;262.85;43.58;;;7.80;95.60;;;;;;5028354;28;20582;-80
2021/12/12 09:44:51;;;;;;;273.00;40.72;;;7.90;95.60;;;;;;5026412;28;20069;-80
2021/12/12 09:47:58;;;;;;;276.35;42.90;;;7.90;95.60;;;;;;5028415;28;20512;-80
2021/12/12 09:53:30;;;;;;;275.40;43.17;;;7.90;95.50;;;;;;5055582;28;20093;-79
2021/12/12 09:56:05;;;;;;;238.88;39.88;;;8.00;95.60;;;;;;5046256;28;20078;-81
2021/12/12 09:58:45;;;;;;;270.95;41.83;;;8.00;95.60;;;;;;5044706;28;20053;-80
2021/12/12 10:01:25;;;;;;;292.48;42.78;;;8.00;95.60;;;;;;5061093;28;20048;-80
2021/12/12 10:04:14;;;;;;;263.33;41.50;;;8.10;95.60;;;;;;5042872;28;20516;-79
2021/12/12 10:07:05;;;;;;;254.73;39.30;;;8.10;95.60;;;;;;5043141;28;20524;-79
2021/12/12 10:09:52;;;;;;;260.33;40.93;;;8.00;95.60;;;;;;5053314;28;20412;-79
2021/12/12 10:12:31;;;;;;;262.67;40.28;;;8.10;95.60;;;;;;5044316;28;20053;-79
2021/12/12 10:15:19;;;;;;;262.02;41.22;;;8.10;95.60;;;;;;5069981;28;20063;-79
2021/12/12 10:17:56;;;;;;;250.48;40.95;;;8.10;95.60;;;;;;5045321;28;20498;-79
2021/12/12 10:20:41;;;;;;;270.55;40.90;;;8.20;95.70;;;;;;5045064;28;20472;-79
2021/12/12 10:23:16;;;;;;;262.27;39.70;;;8.20;95.70;;;;;;5045421;28;20051;-79
2021/12/12 10:26:03;;;;;;;270.25;42.38;;;8.20;95.70;;;;;;5048428;28;20055;-79
2021/12/12 10:28:43;;;;;;;270.92;40.55;;;8.30;95.70;;;;;;5060010;28;21192;-79
2021/12/12 10:31:24;;;;;;;245.32;40.42;;;8.30;95.70;;;;;;5044140;28;20064;-79
2021/12/12 10:33:58;;;;;;;270.65;40.50;;;8.30;95.70;;;;;;5061904;28;20061;-79
2021/12/12 10:36:33;;;;;;;265.52;43.20;;;8.30;96.00;;;;;;5064476;28;20053;-79
2021/12/12 10:39:21;;;;;;;251.93;40.83;;;8.40;95.70;;;;;;5042236;28;20058;-79
2021/12/12 10:41:55;;;;;;;252.68;41.78;;;8.40;95.70;;;;;;5041225;28;20058;-79
2021/12/12 10:44:46;;;;;;;250.27;39.83;;;8.40;95.70;;;;;;5049462;28;20048;-79
2021/12/12 10:47:20;;;;;;;267.40;38.20;;;8.40;95.70;;;;;;5043028;28;20527;-79
2021/12/12 10:50:10;;;;;;;241.27;39.75;;;8.50;95.70;;;;;;5061894;28;20135;-79
2021/12/12 10:53:03;;;;;;;252.88;40.15;;;8.50;95.70;;;;;;5038566;28;20075;-79
2021/12/12 10:55:43;;;;;;;254.13;38.85;;;8.60;95.70;;;;;;5062123;28;20070;-79
2021/12/12 10:58:23;;;;;;;252.75;39.55;;;8.60;95.70;;;;;;5043271;28;20058;-79
2021/12/12 11:00:59;;;;;;;250.55;40.38;;;8.60;95.70;;;;;;5060836;28;20452;-79
2021/12/12 11:03:34;;;;;;;245.80;39.63;;;8.60;95.70;;;;;;5043813;28;20542;-79
2021/12/12 11:06:05;;;;;;;229.30;37.28;;;8.70;95.70;;;;;;5060417;28;20514;-79
2021/12/12 11:08:30;;;;;;;239.43;41.60;;;8.70;95.80;;;;;;5044410;28;20586;-79
2021/12/12 11:10:58;;;;;;;237.50;39.47;;;8.70;95.70;;;;;;5044955;28;20073;-79
2021/12/12 11:13:39;;;;;;;228.68;37.70;;;8.80;95.80;;;;;;5060041;28;20067;-79
2021/12/12 11:16:11;;;;;;;246.45;38.08;;;8.80;96.20;;;;;;5045091;28;20044;-79
2021/12/12 11:18:42;;;;;;;;;;;8.80;95.80;;;;;;5042435;28;20051;-79
2021/12/12 11:21:08;;;;;;;236.13;37.17;;;8.80;95.70;;;;;;5042463;28;19944;-79
2021/12/12 11:23:42;;;;;;;234.25;39.13;;;8.90;95.70;;;;;;5060622;28;20408;-79
2021/12/12 11:26:22;;;;;;;225.82;36.38;;;8.90;95.70;;;;;;5061503;28;20057;-80
2021/12/12 11:29:06;;;;;;;241.52;40.85;;;8.90;95.80;;;;;;5062645;28;20133;-79
2021/12/12 11:31:43;;;;;;;231.35;39.80;;;9.00;95.80;;;;;;5049119;28;20060;-79
2021/12/12 11:34:10;;;;;;;228.80;40.53;;;9.00;95.80;;;;;;5060055;28;20577;-79
2021/12/12 11:37:02;;;;;;;245.48;41.85;;;9.00;95.80;;;;;;5044020;28;20060;-80
2021/12/12 11:39:39;;;;;;;;;;;9.10;95.80;;;;;;5048764;28;20055;-80
2021/12/12 11:42:40;;;;;;;224.07;39.58;;;9.00;95.70;;;;;;5047983;28;19975;-80
2021/12/12 11:45:28;;;;;;;230.10;38.03;;;9.10;95.70;;;;;;5047361;28;20052;-80
2021/12/12 11:48:13;;;;;;;217.73;38.88;;;9.10;95.70;;;;;;5063316;28;20574;-78
2021/12/12 11:50:56;;;;;;;215.80;37.25;;;9.20;95.80;;;;;;5060942;28;20056;-79
2021/12/12 11:53:34;;;;;;;218.95;37.97;;;9.20;95.80;;;;;;5064435;28;20089;-78
2021/12/12 11:56:24;;;;;;;209.38;36.17;;;9.20;95.80;;;;;;5060695;28;20529;-79
2021/12/12 11:59:02;;;;;;;222.07;34.85;;;9.20;95.80;;;;;;5045706;28;20043;-78
2021/12/12 12:01:40;;;;;;;199.25;37.35;;;9.30;95.80;;;;;;5065525;28;20431;-78
2021/12/12 12:04:35;;;;;;;192.25;33.83;;;9.30;95.80;;;;;;5059653;28;20072;-78
2021/12/12 12:07:20;;;;;;;182.07;33.65;;;9.40;95.90;;;;;;5042166;28;20064;-79
2021/12/12 12:10:10;;;;;;;189.63;33.50;;;9.40;95.80;;;;;;5062777;28;20402;-77
2021/12/12 12:12:54;;;;;;;184.63;35.45;;;9.40;95.90;;;;;;5069132;28;20083;-78
2021/12/12 12:15:41;;;;;;;161.25;32.67;;;9.40;95.80;;;;;;5047537;28;20589;-78
2021/12/12 12:18:17;;;;;;;162.95;29.83;;;9.40;95.80;;;;;;5044540;28;20060;-79
2021/12/12 12:20:52;;;;;;;157.98;31.08;;;9.50;95.90;;;;;;5045493;28;20047;-79
2021/12/12 12:23:19;;;;;;;163.18;33.03;;;9.60;95.90;;;;;;5052252;28;20062;-80
2021/12/12 12:28:56;;;;;;;166.20;32.80;;;9.60;95.90;;;;;;5065286;28;20090;-81
2021/12/12 12:31:36;;;;;;;164.85;32.47;;;9.70;95.90;;;;;;5042398;28;20091;-80
2021/12/12 12:34:36;;;;;;;163.57;31.60;;;9.70;95.90;;;;;;5062922;28;20151;-80
2021/12/12 12:37:36;;;;;;;159.05;32.58;;;9.70;95.90;;;;;;5067023;28;20054;-80
2021/12/12 12:40:26;;;;;;;163.55;31.20;;;9.80;95.90;;;;;;5031048;28;20511;-80
2021/12/12 12:43:30;;;;;;;173.90;34.00;;;9.80;95.90;;;;;;5052156;28;20678;-80
2021/12/12 12:46:26;;;;;;;172.82;31.45;;;9.80;96.30;;;;;;5049190;28;20079;-81
2021/12/12 12:49:29;;;;;;;166.70;31.23;;;9.80;95.80;;;;;;5047776;28;20080;-79
2021/12/12 12:52:27;;;;;;;156.48;31.00;;;9.90;95.90;;;;;;5042226;28;20422;-79
2021/12/12 12:55:30;;;;;;;170.63;32.60;;;9.90;95.90;;;;;;5046492;28;20079;-82
2021/12/12 12:58:21;;;;;;;163.88;31.48;;;9.90;95.90;;;;;;5049673;28;20499;-76
2021/12/12 13:00:50;;;;;;;164.73;31.23;;;10.00;95.90;;;;;;5062596;28;20047;-77
2021/12/12 13:03:41;;;;;;;170.55;34.20;;;9.90;95.80;;;;;;5052228;28;20164;-79
2021/12/12 13:06:57;;;;;;;178.27;33.35;;;10.00;95.90;;;;;;5048449;28;20079;-78
2021/12/12 13:09:57;;;;;;;176.52;32.80;;;10.00;95.90;;;;;;5066288;28;20474;-78
2021/12/12 13:12:29;;;;;;;176.75;33.53;;;10.00;95.90;;;;;;5055006;28;20591;-79
2021/12/12 13:15:12;;;;;;;182.32;33.55;;;10.00;95.80;;;;;;5065561;28;20075;-78
2021/12/12 13:17:53;;;;;;;170.02;33.55;;;10.00;95.80;;;;;;5066202;28;20043;-79
2021/12/12 13:20:42;;;;;;;172.68;34.08;;;10.00;95.80;;;;;;5061916;28;20066;-78
2021/12/12 13:23:17;;;;;;;159.18;33.47;;;10.10;95.90;;;;;;5063922;28;20103;-78
2021/12/12 13:26:04;;;;;;;173.13;33.22;;;10.10;95.90;;;;;;5061104;28;20130;-79
2021/12/12 13:28:54;;;;;;;172.23;33.70;;;10.10;95.90;;;;;;5043353;28;20534;-79